Time;durP1;ratioP1;P1;durP2;ratioP2;P2;SDS_P1;SDS_P2;PMS_P1;PMS_P2;Temp;Humidity;BMP_temperature;BMP_pressure;BME280_temperature;BME280_humidity;BME280_pressure;Samples;Min_cycle;Max_cycle;Signal;HPM_P1;HPM_P2
2023/10/18 00:01:04;;;;;;;14.93;9.63;;;;;;;;;;4905946;29;20900;-85
2023/10/18 00:04:10;;;;;;;15.40;9.97;;;;;;;;;;4917313;29;20545;-86
2023/10/18 00:07:15;;;;;;;16.00;9.77;;;;;;;;;;4912685;29;20596;-85
2023/10/18 00:10:20;;;;;;;17.37;10.33;;;;;;;;;;4898908;29;20566;-85
2023/10/18 00:13:24;;;;;;;18.17;10.93;;;;;;;;;;4898707;29;21105;-85
2023/10/18 00:16:29;;;;;;;15.33;10.03;;;;;;;;;;4920370;29;20572;-85
2023/10/18 00:19:33;;;;;;;15.93;9.83;;;;;;;;;;4915477;29;20632;-85
2023/10/18 00:22:38;;;;;;;14.37;9.70;;;;;;;;;;4887608;29;21078;-85
2023/10/18 00:25:42;;;;;;;13.97;9.00;;;;;;;;;;4908954;29;20616;-85
2023/10/18 00:28:48;;;;;;;13.07;10.00;;;;;;;;;;4887835;29;20628;-86
2023/10/18 00:31:52;;;;;;;12.63;9.63;;;;;;;;;;4897997;29;20568;-86
2023/10/18 00:34:56;;;;;;;13.57;9.03;;;;;;;;;;4898089;29;20565;-85
2023/10/18 00:38:03;;;;;;;13.90;9.40;;;;;;;;;;4908758;29;20616;-85
2023/10/18 00:41:14;;;;;;;12.80;8.70;;;;;;;;;;4908929;29;20560;-86
2023/10/18 00:44:21;;;;;;;14.67;9.53;;;;;;;;;;4903126;29;20888;-86
2023/10/18 00:47:26;;;;;;;15.40;9.50;;;;;;;;;;4897774;29;20608;-85
2023/10/18 00:50:33;;;;;;;12.57;8.67;;;;;;;;;;4898611;29;20545;-86
2023/10/18 00:53:38;;;;;;;15.97;9.67;;;;;;;;;;4897844;29;21082;-86
2023/10/18 00:56:46;;;;;;;15.43;9.77;;;;;;;;;;4908816;29;20542;-86
2023/10/18 00:59:53;;;;;;;11.90;9.10;;;;;;;;;;4908774;29;20880;-86
2023/10/18 01:03:03;;;;;;;16.40;10.13;;;;;;;;;;4908371;29;20545;-85
2023/10/18 01:06:16;;;;;;;15.33;10.63;;;;;;;;;;4897544;29;21202;-85
2023/10/18 01:09:20;;;;;;;13.57;10.00;;;;;;;;;;4919820;29;20652;-85
2023/10/18 01:12:25;;;;;;;15.07;9.47;;;;;;;;;;4908589;29;20574;-85
2023/10/18 01:15:31;;;;;;;17.57;10.23;;;;;;;;;;4903785;29;20935;-85
2023/10/18 01:18:35;;;;;;;17.20;8.90;;;;;;;;;;4903317;29;20635;-86
2023/10/18 01:21:42;;;;;;;12.80;9.00;;;;;;;;;;4908182;29;20549;-86
2023/10/18 01:24:46;;;;;;;14.33;9.73;;;;;;;;;;4907983;29;21118;-86
2023/10/18 01:27:51;;;;;;;13.23;9.83;;;;;;;;;;4907876;29;20660;-85
2023/10/18 01:30:55;;;;;;;14.87;9.07;;;;;;;;;;4886672;29;20565;-86
2023/10/18 01:34:03;;;;;;;12.23;9.27;;;;;;;;;;4908215;29;20550;-86
2023/10/18 01:37:13;;;;;;;11.60;8.50;;;;;;;;;;4886796;29;20534;-86
2023/10/18 01:40:21;;;;;;;11.13;8.43;;;;;;;;;;4919570;29;20562;-85
2023/10/18 01:43:28;;;;;;;11.17;8.30;;;;;;;;;;4897348;29;20906;-86
2023/10/18 01:46:48;;;;;;;13.70;10.03;;;;;;;;;;4903412;29;20613;-86
2023/10/18 01:49:53;;;;;;;13.43;9.27;;;;;;;;;;4896998;29;20545;-85
2023/10/18 01:53:00;;;;;;;12.27;8.93;;;;;;;;;;4896899;29;21082;-85
2023/10/18 01:56:04;;;;;;;16.10;8.63;;;;;;;;;;4919076;29;20554;-86
2023/10/18 01:59:13;;;;;;;13.20;10.13;;;;;;;;;;4890693;29;21193;-86
2023/10/18 02:02:20;;;;;;;12.60;9.93;;;;;;;;;;4907143;29;20561;-86
2023/10/18 02:05:26;;;;;;;12.13;8.77;;;;;;;;;;4896680;29;20549;-86
2023/10/18 02:08:30;;;;;;;13.77;9.17;;;;;;;;;;4906843;29;20648;-86
2023/10/18 02:11:35;;;;;;;12.17;9.37;;;;;;;;;;4907053;29;20561;-86
2023/10/18 02:14:40;;;;;;;14.67;9.23;;;;;;;;;;4882854;29;20554;-86
2023/10/18 02:17:51;;;;;;;12.40;9.80;;;;;;;;;;4904513;29;20612;-85
2023/10/18 02:20:55;;;;;;;13.23;8.97;;;;;;;;;;4907314;29;20546;-86
2023/10/18 02:23:59;;;;;;;13.80;8.90;;;;;;;;;;4896249;29;20557;-86
2023/10/18 02:27:04;;;;;;;18.03;10.60;;;;;;;;;;4896436;29;20597;-86
2023/10/18 02:30:11;;;;;;;12.47;9.87;;;;;;;;;;4896084;29;20554;-86
2023/10/18 02:33:15;;;;;;;12.10;9.50;;;;;;;;;;4900709;29;20549;-86
2023/10/18 02:36:21;;;;;;;12.83;8.77;;;;;;;;;;4906975;29;20541;-86
2023/10/18 02:39:30;;;;;;;12.93;9.47;;;;;;;;;;4906643;29;20625;-85
2023/10/18 02:42:34;;;;;;;15.20;9.67;;;;;;;;;;4906903;29;21094;-86
2023/10/18 02:45:39;;;;;;;12.33;9.40;;;;;;;;;;4906694;29;20553;-86
2023/10/18 02:48:44;;;;;;;14.67;9.27;;;;;;;;;;4895734;29;20613;-85
2023/10/18 02:51:49;;;;;;;12.80;8.53;;;;;;;;;;4906618;29;20546;-86
2023/10/18 02:54:54;;;;;;;11.90;8.60;;;;;;;;;;4917932;29;20569;-86
2023/10/18 02:57:59;;;;;;;12.90;9.33;;;;;;;;;;4895969;29;20986;-85
2023/10/18 03:01:06;;;;;;;11.10;8.57;;;;;;;;;;4895712;29;20561;-86
2023/10/18 03:04:16;;;;;;;11.93;8.20;;;;;;;;;;4917544;29;20541;-86
2023/10/18 03:07:22;;;;;;;11.87;8.37;;;;;;;;;;4900673;29;20589;-86
2023/10/18 03:10:32;;;;;;;10.93;8.53;;;;;;;;;;4895618;29;20557;-85
2023/10/18 03:13:37;;;;;;;11.73;8.27;;;;;;;;;;4902737;29;20545;-86
2023/10/18 03:16:41;;;;;;;10.33;7.53;;;;;;;;;;4892530;29;20565;-86
2023/10/18 03:19:49;;;;;;;11.30;8.47;;;;;;;;;;4884814;29;21082;-86
2023/10/18 03:22:55;;;;;;;11.37;8.83;;;;;;;;;;4895813;29;20537;-86
2023/10/18 03:26:07;;;;;;;12.23;8.63;;;;;;;;;;4906583;29;20545;-86
2023/10/18 03:29:12;;;;;;;12.87;9.13;;;;;;;;;;4898949;29;20609;-86
2023/10/18 03:32:19;;;;;;;11.70;8.27;;;;;;;;;;4907875;29;20557;-84
2023/10/18 03:35:25;;;;;;;11.73;8.93;;;;;;;;;;4903465;29;20546;-84
2023/10/18 03:38:39;;;;;;;12.87;9.37;;;;;;;;;;4919895;29;20620;-84
2023/10/18 03:41:46;;;;;;;11.97;8.77;;;;;;;;;;4907577;29;20557;-83
2023/10/18 03:44:51;;;;;;;13.17;9.60;;;;;;;;;;4923408;29;20549;-84
2023/10/18 03:47:58;;;;;;;11.13;8.47;;;;;;;;;;4911730;29;20648;-84
2023/10/18 03:51:02;;;;;;;12.00;8.77;;;;;;;;;;4911553;29;20542;-84
2023/10/18 03:54:09;;;;;;;13.37;10.20;;;;;;;;;;4923174;29;20888;-84
2023/10/18 03:57:16;;;;;;;15.63;10.33;;;;;;;;;;4901347;29;20564;-84
2023/10/18 04:03:29;;;;;;;14.17;9.80;;;;;;;;;;4911945;29;20568;-84
2023/10/18 04:06:35;;;;;;;14.40;9.33;;;;;;;;;;4907528;29;20538;-84
2023/10/18 04:09:46;;;;;;;12.13;8.93;;;;;;;;;;4923187;29;20624;-84
2023/10/18 04:12:50;;;;;;;14.63;10.30;;;;;;;;;;4922909;29;20546;-84
2023/10/18 04:16:09;;;;;;;12.20;9.13;;;;;;;;;;4922411;29;20561;-84
2023/10/18 04:19:19;;;;;;;12.93;8.87;;;;;;;;;;4922682;29;20625;-84
2023/10/18 04:22:23;;;;;;;11.30;8.90;;;;;;;;;;4922714;29;20538;-84
2023/10/18 04:25:30;;;;;;;10.33;8.27;;;;;;;;;;4895852;29;20557;-84
2023/10/18 04:28:38;;;;;;;12.03;8.83;;;;;;;;;;4921911;29;20656;-84
2023/10/18 04:31:42;;;;;;;13.27;8.43;;;;;;;;;;4922910;29;20564;-84
2023/10/18 04:34:46;;;;;;;11.00;8.73;;;;;;;;;;4911577;29;20545;-84
2023/10/18 04:37:50;;;;;;;13.50;9.50;;;;;;;;;;4922167;29;20613;-83
2023/10/18 04:44:05;;;;;;;15.57;9.47;;;;;;;;;;4922980;29;20541;-84
2023/10/18 04:47:15;;;;;;;11.00;8.73;;;;;;;;;;4910641;29;20608;-84
2023/10/18 04:50:29;;;;;;;10.80;8.97;;;;;;;;;;4894019;29;20537;-84
2023/10/18 04:53:33;;;;;;;12.80;8.93;;;;;;;;;;4921648;29;20561;-84
2023/10/18 04:56:38;;;;;;;11.00;8.27;;;;;;;;;;4907359;29;20569;-83
2023/10/18 04:59:45;;;;;;;12.00;9.07;;;;;;;;;;4899548;29;20545;-84
2023/10/18 05:02:51;;;;;;;13.90;9.87;;;;;;;;;;4921217;29;20546;-84
2023/10/18 05:05:56;;;;;;;14.10;9.93;;;;;;;;;;4921150;29;20542;-84
2023/10/18 05:09:06;;;;;;;18.27;12.53;;;;;;;;;;4909652;29;20645;-87
2023/10/18 05:15:59;;;;;;;24.10;18.00;;;;;;;;;;4921209;29;21105;-83
2023/10/18 05:19:06;;;;;;;27.37;17.60;;;;;;;;;;4899077;29;20974;-83
2023/10/18 05:22:20;;;;;;;19.27;12.70;;;;;;;;;;4921785;29;20547;-83
2023/10/18 05:25:30;;;;;;;22.53;12.63;;;;;;;;;;4921688;29;21160;-84
2023/10/18 05:28:52;;;;;;;30.83;17.33;;;;;;;;;;4917155;29;20683;-84
2023/10/18 05:32:13;;;;;;;26.57;17.77;;;;;;;;;;4896147;29;20653;-84
2023/10/18 05:35:35;;;;;;;20.63;15.40;;;;;;;;;;4919942;29;20561;-84
2023/10/18 05:41:51;;;;;;;16.43;11.57;;;;;;;;;;4903827;29;20588;-83
2023/10/18 05:44:55;;;;;;;34.00;21.70;;;;;;;;;;4909113;29;20570;-83
2023/10/18 05:48:03;;;;;;;18.27;10.40;;;;;;;;;;4921289;29;20660;-83
2023/10/18 05:54:31;;;;;;;121.67;27.83;;;;;;;;;;4921440;29;20911;-84
2023/10/18 05:57:35;;;;;;;56.77;17.70;;;;;;;;;;4909176;29;20698;-83
2023/10/18 06:00:41;;;;;;;42.80;18.00;;;;;;;;;;4921148;29;20561;-83
2023/10/18 06:03:45;;;;;;;31.07;16.77;;;;;;;;;;4911205;29;20954;-84
2023/10/18 06:06:51;;;;;;;30.37;19.50;;;;;;;;;;4919935;29;20568;-84
2023/10/18 06:13:08;;;;;;;32.77;18.90;;;;;;;;;;4920900;29;20570;-84
2023/10/18 06:16:29;;;;;;;25.47;16.20;;;;;;;;;;4930444;29;20564;-84
2023/10/18 06:19:36;;;;;;;27.20;15.37;;;;;;;;;;4920561;29;20620;-83
2023/10/18 06:22:43;;;;;;;31.53;15.73;;;;;;;;;;4921747;29;20562;-83
2023/10/18 06:25:50;;;;;;;30.10;15.67;;;;;;;;;;4920621;29;20962;-83
2023/10/18 06:29:22;;;;;;;21.97;14.73;;;;;;;;;;4920375;29;20667;-83
2023/10/18 06:32:27;;;;;;;18.93;13.10;;;;;;;;;;4920701;29;20564;-83
2023/10/18 06:35:41;;;;;;;18.67;12.80;;;;;;;;;;4920513;29;20549;-83
2023/10/18 06:38:45;;;;;;;17.33;11.30;;;;;;;;;;4930950;29;20615;-84
2023/10/18 06:41:52;;;;;;;15.33;10.60;;;;;;;;;;4908661;29;20923;-83
2023/10/18 06:44:56;;;;;;;15.33;10.80;;;;;;;;;;4920901;29;20902;-83
2023/10/18 06:48:03;;;;;;;15.50;10.73;;;;;;;;;;4920635;29;20675;-83
2023/10/18 06:51:17;;;;;;;18.93;12.17;;;;;;;;;;4908933;29;20556;-84
2023/10/18 06:54:30;;;;;;;24.47;11.73;;;;;;;;;;4908994;29;20549;-84
2023/10/18 06:57:36;;;;;;;15.80;10.60;;;;;;;;;;4908828;29;20624;-84
2023/10/18 07:00:46;;;;;;;16.87;10.87;;;;;;;;;;4920345;29;20564;-84
2023/10/18 07:03:49;;;;;;;16.17;11.57;;;;;;;;;;4908416;29;20553;-84
2023/10/18 07:06:55;;;;;;;16.30;12.63;;;;;;;;;;4908658;29;20572;-84
2023/10/18 07:10:04;;;;;;;17.60;11.77;;;;;;;;;;4889654;29;20534;-84
2023/10/18 07:13:08;;;;;;;15.17;11.10;;;;;;;;;;4899827;29;20904;-84
2023/10/18 07:16:16;;;;;;;21.20;11.60;;;;;;;;;;4900838;29;20925;-83
2023/10/18 07:19:25;;;;;;;14.60;11.23;;;;;;;;;;4900373;29;20620;-84
2023/10/18 07:22:44;;;;;;;15.53;11.67;;;;;;;;;;4888853;29;20888;-84
2023/10/18 07:25:48;;;;;;;17.97;11.37;;;;;;;;;;4911120;29;20201;-84
2023/10/18 07:28:54;;;;;;;15.47;13.13;;;;;;;;;;4900011;29;21241;-84
2023/10/18 07:31:59;;;;;;;17.53;12.87;;;;;;;;;;4900443;29;20554;-85
2023/10/18 07:35:04;;;;;;;19.70;11.67;;;;;;;;;;4897984;29;20194;-85
2023/10/18 07:38:08;;;;;;;16.60;11.40;;;;;;;;;;4898063;29;20225;-85
2023/10/18 07:41:13;;;;;;;12.57;10.63;;;;;;;;;;4898038;29;20194;-85
2023/10/18 07:44:17;;;;;;;13.30;10.17;;;;;;;;;;4898867;29;20200;-85
2023/10/18 07:47:25;;;;;;;20.57;12.80;;;;;;;;;;4887761;29;20197;-84
2023/10/18 07:50:41;;;;;;;29.67;19.10;;;;;;;;;;4887564;29;20194;-85
2023/10/18 07:53:45;;;;;;;18.30;13.33;;;;;;;;;;4898312;29;20207;-86
2023/10/18 07:56:49;;;;;;;12.77;10.00;;;;;;;;;;4899320;29;20647;-85
2023/10/18 08:00:21;;;;;;;11.70;9.87;;;;;;;;;;4887465;29;20197;-85
2023/10/18 08:03:18;;;;;;;14.37;10.20;;;;;;;;;;4887075;29;20190;-85
2023/10/18 08:06:26;;;;;;;14.47;10.20;;;;;;;;;;4887397;29;20690;-85
2023/10/18 08:09:30;;;;;;;11.93;9.53;;;;;;;;;;4914747;29;20590;-85
2023/10/18 08:12:34;;;;;;;13.40;8.43;;;;;;;;;;4906217;29;20197;-85
2023/10/18 08:15:43;;;;;;;16.60;9.07;;;;;;;;;;4896312;29;20188;-85
2023/10/18 08:18:53;;;;;;;11.07;8.90;;;;;;;;;;4916922;29;20221;-85
2023/10/18 08:22:22;;;;;;;10.57;8.73;;;;;;;;;;4906312;29;20189;-85
2023/10/18 08:25:34;;;;;;;10.07;8.57;;;;;;;;;;4884830;29;20193;-85
2023/10/18 08:28:38;;;;;;;10.57;7.83;;;;;;;;;;4908246;29;20236;-85
2023/10/18 08:31:55;;;;;;;10.03;8.10;;;;;;;;;;4921058;29;20193;-85
2023/10/18 08:35:06;;;;;;;9.27;7.50;;;;;;;;;;4910772;29;20197;-85
2023/10/18 08:38:12;;;;;;;16.17;7.93;;;;;;;;;;4911052;29;20213;-85
2023/10/18 08:41:17;;;;;;;7.77;6.97;;;;;;;;;;4923253;29;20650;-85
2023/10/18 08:44:25;;;;;;;9.53;7.10;;;;;;;;;;4922495;29;20551;-85
2023/10/18 08:47:30;;;;;;;9.17;7.40;;;;;;;;;;4909025;29;20193;-85
2023/10/18 08:50:34;;;;;;;9.23;7.13;;;;;;;;;;4920717;29;20650;-85
2023/10/18 08:53:41;;;;;;;11.27;7.03;;;;;;;;;;4919546;29;20188;-85
2023/10/18 08:56:51;;;;;;;8.70;7.73;;;;;;;;;;4930759;29;20193;-85
2023/10/18 08:59:56;;;;;;;10.27;7.20;;;;;;;;;;4919963;29;20185;-85
2023/10/18 09:03:01;;;;;;;8.77;6.87;;;;;;;;;;4897334;29;20185;-85
2023/10/18 09:06:06;;;;;;;8.73;6.87;;;;;;;;;;4908200;29;20197;-86
2023/10/18 09:09:10;;;;;;;9.50;6.53;;;;;;;;;;4918680;29;20232;-86
2023/10/18 09:12:15;;;;;;;7.50;6.43;;;;;;;;;;4897463;29;20193;-86
2023/10/18 09:15:28;;;;;;;7.40;6.03;;;;;;;;;;4908160;29;20193;-85
2023/10/18 09:18:33;;;;;;;9.67;6.53;;;;;;;;;;4919401;29;20225;-86
2023/10/18 09:21:57;;;;;;;7.27;6.47;;;;;;;;;;4897241;29;20185;-86
2023/10/18 09:25:01;;;;;;;8.83;6.10;;;;;;;;;;4919572;29;20185;-86
2023/10/18 09:28:10;;;;;;;6.83;5.30;;;;;;;;;;4919114;29;20224;-86
2023/10/18 09:31:18;;;;;;;7.57;6.07;;;;;;;;;;4918813;29;20185;-85
2023/10/18 09:34:23;;;;;;;8.90;6.20;;;;;;;;;;4919910;29;20185;-86
2023/10/18 09:37:29;;;;;;;8.80;6.13;;;;;;;;;;4907501;29;20189;-85
2023/10/18 09:40:35;;;;;;;7.00;5.77;;;;;;;;;;4906916;29;20193;-86
2023/10/18 09:43:39;;;;;;;7.60;5.70;;;;;;;;;;4919008;29;20192;-86
2023/10/18 09:46:48;;;;;;;8.07;5.83;;;;;;;;;;4907411;29;20188;-86
2023/10/18 09:50:05;;;;;;;7.80;6.27;;;;;;;;;;4907464;29;20221;-86
2023/10/18 09:53:12;;;;;;;8.27;5.67;;;;;;;;;;4918886;29;20189;-86
2023/10/18 09:56:33;;;;;;;6.27;4.87;;;;;;;;;;4896428;29;20196;-86
2023/10/18 09:59:37;;;;;;;11.93;5.60;;;;;;;;;;4896220;29;20213;-86
2023/10/18 10:02:52;;;;;;;10.27;5.90;;;;;;;;;;4919331;29;20297;-86
2023/10/18 10:05:57;;;;;;;6.67;4.93;;;;;;;;;;4907120;29;20560;-86
2023/10/18 10:12:19;;;;;;;7.50;5.37;;;;;;;;;;4907529;29;20185;-86
2023/10/18 10:15:28;;;;;;;6.53;5.10;;;;;;;;;;4918658;29;20189;-86
2023/10/18 10:18:37;;;;;;;6.97;5.03;;;;;;;;;;4918609;29;20217;-86
2023/10/18 10:21:43;;;;;;;5.50;4.93;;;;;;;;;;4906940;29;20180;-86
2023/10/18 10:24:59;;;;;;;8.47;5.20;;;;;;;;;;4907132;29;20193;-86
2023/10/18 10:28:14;;;;;;;15.07;5.17;;;;;;;;;;4907531;29;20221;-85
2023/10/18 10:31:22;;;;;;;5.17;4.67;;;;;;;;;;4896083;29;20555;-85
2023/10/18 10:34:32;;;;;;;7.93;5.33;;;;;;;;;;4918759;29;20189;-86
2023/10/18 10:37:46;;;;;;;7.03;4.50;;;;;;;;;;4917760;29;20221;-86
2023/10/18 10:41:19;;;;;;;5.50;4.53;;;;;;;;;;4918386;29;20185;-86
2023/10/18 10:44:23;;;;;;;6.63;4.77;;;;;;;;;;4895713;29;20189;-86
2023/10/18 10:47:32;;;;;;;5.37;4.67;;;;;;;;;;4917501;29;20638;-86
2023/10/18 10:50:53;;;;;;;9.20;4.93;;;;;;;;;;4895574;29;20217;-86
2023/10/18 10:53:57;;;;;;;6.23;4.50;;;;;;;;;;4917266;29;20185;-86
2023/10/18 10:57:01;;;;;;;8.53;4.50;;;;;;;;;;4896444;29;20181;-86
2023/10/18 11:00:22;;;;;;;4.80;4.27;;;;;;;;;;4906497;29;20188;-86
2023/10/18 11:03:28;;;;;;;6.00;4.93;;;;;;;;;;4917744;29;20193;-86
2023/10/18 11:06:42;;;;;;;5.53;4.37;;;;;;;;;;4918238;29;20193;-85
2023/10/18 11:09:47;;;;;;;6.73;4.50;;;;;;;;;;4898259;29;20225;-86
2023/10/18 11:12:51;;;;;;;5.20;4.27;;;;;;;;;;4900429;29;20193;-84
2023/10/18 11:15:56;;;;;;;4.93;4.17;;;;;;;;;;4901078;29;20761;-84
2023/10/18 11:19:01;;;;;;;12.50;4.87;;;;;;;;;;4901085;29;20221;-84
2023/10/18 11:22:05;;;;;;;6.63;4.20;;;;;;;;;;4879146;29;20198;-84
2023/10/18 11:25:13;;;;;;;6.20;4.27;;;;;;;;;;4899920;29;20190;-84
2023/10/18 11:28:28;;;;;;;7.73;4.33;;;;;;;;;;4901317;29;20229;-84
2023/10/18 11:31:37;;;;;;;5.33;3.83;;;;;;;;;;4900494;29;20190;-85
2023/10/18 11:34:43;;;;;;;6.00;4.57;;;;;;;;;;4878655;29;20190;-84
2023/10/18 11:37:47;;;;;;;7.00;4.60;;;;;;;;;;4900545;29;20225;-84
2023/10/18 11:40:52;;;;;;;7.40;4.50;;;;;;;;;;4900576;29;20189;-84
2023/10/18 11:43:56;;;;;;;6.03;4.20;;;;;;;;;;4900705;29;20193;-84
2023/10/18 11:47:01;;;;;;;4.83;4.33;;;;;;;;;;4900575;29;20190;-84
2023/10/18 11:50:06;;;;;;;4.93;4.17;;;;;;;;;;4888631;29;20217;-84
2023/10/18 11:53:23;;;;;;;7.10;4.00;;;;;;;;;;4889399;29;20190;-84
2023/10/18 11:56:35;;;;;;;5.47;4.60;;;;;;;;;;4900995;29;20190;-84
2023/10/18 11:59:51;;;;;;;5.13;4.17;;;;;;;;;;4900504;29;20213;-84
2023/10/18 12:02:55;;;;;;;6.27;4.93;;;;;;;;;;4890656;29;20194;-84
2023/10/18 12:06:00;;;;;;;5.90;4.87;;;;;;;;;;4881768;29;20189;-84
2023/10/18 12:12:19;;;;;;;7.73;4.77;;;;;;;;;;4922372;29;20193;-84
2023/10/18 12:15:25;;;;;;;5.60;5.00;;;;;;;;;;4922316;29;20535;-84
2023/10/18 12:18:29;;;;;;;7.47;5.47;;;;;;;;;;4922415;29;20221;-84
2023/10/18 12:21:34;;;;;;;7.87;4.93;;;;;;;;;;4922973;29;20193;-84
2023/10/18 12:24:38;;;;;;;14.57;6.00;;;;;;;;;;4910778;29;20188;-84
2023/10/18 12:27:50;;;;;;;9.83;5.17;;;;;;;;;;4911646;29;20229;-84
2023/10/18 12:30:55;;;;;;;7.47;4.83;;;;;;;;;;4921847;29;20695;-84
2023/10/18 12:34:00;;;;;;;6.43;4.87;;;;;;;;;;4922308;29;20189;-84
2023/10/18 12:37:07;;;;;;;22.90;5.63;;;;;;;;;;4921547;29;20189;-84
2023/10/18 12:43:44;;;;;;;7.03;5.33;;;;;;;;;;4921954;29;20189;-84
2023/10/18 12:46:53;;;;;;;10.60;5.43;;;;;;;;;;4931906;29;20181;-84
2023/10/18 12:49:58;;;;;;;6.83;4.90;;;;;;;;;;4921477;29;20221;-84
2023/10/18 12:53:17;;;;;;;5.53;4.40;;;;;;;;;;4909745;29;20185;-85
2023/10/18 13:05:58;;;;;;;7.00;5.23;;;;;;;;;;4907828;29;20189;-86
2023/10/18 13:09:16;;;;;;;8.07;5.20;;;;;;;;;;4908437;29;20232;-86
2023/10/18 13:12:23;;;;;;;5.90;4.93;;;;;;;;;;4897530;29;20189;-86
2023/10/18 13:15:28;;;;;;;6.47;4.93;;;;;;;;;;4919232;29;20189;-86
2023/10/18 13:18:32;;;;;;;7.57;5.10;;;;;;;;;;4907654;29;20229;-86
2023/10/18 13:21:39;;;;;;;7.87;5.30;;;;;;;;;;4908505;29;20185;-86
2023/10/18 13:24:44;;;;;;;6.70;5.00;;;;;;;;;;4918419;29;20193;-86
2023/10/18 13:27:49;;;;;;;7.93;5.70;;;;;;;;;;4885930;29;20224;-86
2023/10/18 13:30:53;;;;;;;6.93;5.40;;;;;;;;;;4919293;29;20568;-86
2023/10/18 13:34:06;;;;;;;11.90;6.93;;;;;;;;;;4918931;29;20193;-86
2023/10/18 13:37:12;;;;;;;8.23;5.03;;;;;;;;;;4896639;29;20185;-86
2023/10/18 13:40:19;;;;;;;8.63;6.37;;;;;;;;;;4896688;29;20185;-86
2023/10/18 13:43:24;;;;;;;9.20;5.60;;;;;;;;;;4896934;29;20646;-85
2023/10/18 13:46:29;;;;;;;7.97;5.30;;;;;;;;;;4918661;29;20189;-86
2023/10/18 13:49:36;;;;;;;6.77;5.07;;;;;;;;;;4907201;29;20232;-85
2023/10/18 13:52:46;;;;;;;5.73;4.57;;;;;;;;;;4896401;29;20208;-86
2023/10/18 13:55:59;;;;;;;5.30;4.30;;;;;;;;;;4907842;29;20185;-86
2023/10/18 13:59:07;;;;;;;7.30;4.60;;;;;;;;;;4906802;29;20224;-86
2023/10/18 14:02:17;;;;;;;5.67;4.63;;;;;;;;;;4896500;29;20184;-86
2023/10/18 14:05:31;;;;;;;6.60;4.97;;;;;;;;;;4907015;29;20528;-86
2023/10/18 14:08:45;;;;;;;6.10;4.07;;;;;;;;;;4918283;29;20228;-85
2023/10/18 14:11:52;;;;;;;5.40;4.20;;;;;;;;;;4896046;29;20208;-85
2023/10/18 14:15:03;;;;;;;5.70;4.37;;;;;;;;;;4917758;29;20642;-84
2023/10/18 14:18:08;;;;;;;8.13;4.87;;;;;;;;;;4907133;29;20228;-86
2023/10/18 14:21:12;;;;;;;7.03;4.50;;;;;;;;;;4917561;29;20185;-86
2023/10/18 14:24:21;;;;;;;6.63;4.53;;;;;;;;;;4896032;29;20185;-86
2023/10/18 14:27:28;;;;;;;5.57;4.80;;;;;;;;;;4906915;29;20185;-86
2023/10/18 14:30:36;;;;;;;8.03;4.70;;;;;;;;;;4906787;29;20216;-85
2023/10/18 14:33:44;;;;;;;7.57;4.20;;;;;;;;;;4895841;29;20193;-86
2023/10/18 14:36:50;;;;;;;5.53;4.73;;;;;;;;;;4918256;29;20189;-86
2023/10/18 14:39:57;;;;;;;4.70;4.13;;;;;;;;;;4906625;29;20646;-86
2023/10/18 14:43:06;;;;;;;8.63;4.90;;;;;;;;;;4906854;29;20181;-85
2023/10/18 14:50:06;;;;;;;9.77;5.53;;;;;;;;;;4895649;29;20217;-86
2023/10/18 14:53:13;;;;;;;6.23;4.33;;;;;;;;;;4884508;29;20185;-86
2023/10/18 14:56:19;;;;;;;9.20;4.37;;;;;;;;;;4917185;29;20197;-85
2023/10/18 14:59:23;;;;;;;7.40;4.00;;;;;;;;;;4917019;29;20228;-85
2023/10/18 15:02:34;;;;;;;5.07;3.90;;;;;;;;;;4906280;29;20188;-85
2023/10/18 15:05:42;;;;;;;5.70;3.93;;;;;;;;;;4895824;29;20185;-85
2023/10/18 15:08:53;;;;;;;6.07;4.90;;;;;;;;;;4906264;29;20232;-86
2023/10/18 15:12:07;;;;;;;8.80;4.20;;;;;;;;;;4916590;29;20568;-86
2023/10/18 15:15:14;;;;;;;9.60;5.07;;;;;;;;;;4917958;29;20185;-86
2023/10/18 15:18:17;;;;;;;10.70;5.40;;;;;;;;;;4916671;29;20600;-86
2023/10/18 15:21:22;;;;;;;10.83;5.13;;;;;;;;;;4905639;29;20197;-86
2023/10/18 15:24:26;;;;;;;15.03;5.77;;;;;;;;;;4905831;29;20561;-85
2023/10/18 15:27:31;;;;;;;10.27;5.07;;;;;;;;;;4917224;29;20196;-85
2023/10/18 15:30:36;;;;;;;5.87;4.10;;;;;;;;;;4895086;29;20588;-85
2023/10/18 15:33:42;;;;;;;6.67;3.73;;;;;;;;;;4895833;29;20193;-85
2023/10/18 15:36:49;;;;;;;5.27;3.80;;;;;;;;;;4895149;29;20193;-85
2023/10/18 15:39:55;;;;;;;14.23;4.70;;;;;;;;;;4906753;29;20188;-85
2023/10/18 15:42:59;;;;;;;10.30;4.03;;;;;;;;;;4894665;29;20200;-86
2023/10/18 15:46:03;;;;;;;7.20;4.67;;;;;;;;;;4905949;29;20195;-86
2023/10/18 15:49:08;;;;;;;6.30;3.63;;;;;;;;;;4916928;29;20220;-85
2023/10/18 15:52:13;;;;;;;14.70;5.30;;;;;;;;;;4905342;29;20659;-86
2023/10/18 15:55:18;;;;;;;4.80;3.60;;;;;;;;;;4917210;29;20206;-86
2023/10/18 15:58:22;;;;;;;10.50;4.10;;;;;;;;;;4894729;29;20225;-86
2023/10/18 16:01:26;;;;;;;7.43;3.80;;;;;;;;;;4905361;29;20189;-87
2023/10/18 16:04:34;;;;;;;12.57;4.87;;;;;;;;;;4894847;29;20189;-87
2023/10/18 16:07:38;;;;;;;14.30;5.07;;;;;;;;;;4905099;29;20240;-86
2023/10/18 16:10:42;;;;;;;11.17;7.60;;;;;;;;;;4904664;29;20220;-87
2023/10/18 16:13:46;;;;;;;8.37;4.23;;;;;;;;;;4893764;29;20194;-87
2023/10/18 16:16:51;;;;;;;7.33;3.93;;;;;;;;;;4893822;29;20527;-87
2023/10/18 16:19:56;;;;;;;6.87;3.93;;;;;;;;;;4916311;29;20193;-87
2023/10/18 16:23:03;;;;;;;4.63;3.67;;;;;;;;;;4893545;29;20193;-87
2023/10/18 16:26:09;;;;;;;7.60;3.77;;;;;;;;;;4904474;29;20189;-87
2023/10/18 16:29:14;;;;;;;6.17;3.57;;;;;;;;;;4915545;29;20228;-87
2023/10/18 16:32:18;;;;;;;5.10;3.43;;;;;;;;;;4904262;29;20217;-87
2023/10/18 16:35:22;;;;;;;8.40;3.77;;;;;;;;;;4904526;29;20193;-86
2023/10/18 16:38:26;;;;;;;4.33;3.33;;;;;;;;;;4914978;29;20225;-86
2023/10/18 16:41:30;;;;;;;8.90;4.27;;;;;;;;;;4903867;29;20189;-85
2023/10/18 16:44:35;;;;;;;7.93;4.27;;;;;;;;;;4904325;29;20189;-85
2023/10/18 16:47:39;;;;;;;18.17;4.70;;;;;;;;;;4893562;29;20232;-86
2023/10/18 16:50:45;;;;;;;8.93;4.40;;;;;;;;;;4907111;29;20225;-86
2023/10/18 16:53:50;;;;;;;5.90;3.40;;;;;;;;;;4907327;29;20197;-85
2023/10/18 16:56:54;;;;;;;8.43;4.10;;;;;;;;;;4918810;29;20193;-85
2023/10/18 16:59:58;;;;;;;5.37;3.93;;;;;;;;;;4907197;29;20196;-86
2023/10/18 17:03:03;;;;;;;9.73;4.40;;;;;;;;;;4907373;29;20185;-85
2023/10/18 17:06:08;;;;;;;11.23;4.40;;;;;;;;;;4885884;29;20193;-86
2023/10/18 17:09:18;;;;;;;9.27;5.30;;;;;;;;;;4886049;29;1071607;-85
2023/10/18 17:12:23;;;;;;;8.87;6.17;;;;;;;;;;4922626;29;20224;-85
2023/10/18 17:15:27;;;;;;;11.47;6.40;;;;;;;;;;4920850;29;20181;-85
2023/10/18 18:18:58;;;;;;;7.77;5.73;;;;;;;;;;4935305;29;20240;-85
2023/10/18 18:29:01;;;;;;;;;;;;;;;;;;;;;
2023/10/18 18:33:15;;;;;;;10.13;6.97;;;;;;;;;;4806503;29;20220;-84
2023/10/18 18:36:19;;;;;;;8.67;6.77;;;;;;;;;;4797125;29;20216;-84
2023/10/18 18:39:23;;;;;;;8.83;7.50;;;;;;;;;;4933148;29;20567;-84
2023/10/18 18:42:28;;;;;;;9.80;7.60;;;;;;;;;;4930035;29;20564;-84
2023/10/18 18:45:32;;;;;;;12.33;7.67;;;;;;;;;;4917758;29;20192;-85
2023/10/18 18:48:37;;;;;;;11.70;8.00;;;;;;;;;;4939354;29;20224;-84
2023/10/18 18:51:41;;;;;;;10.63;7.77;;;;;;;;;;4927910;29;20189;-84
2023/10/18 18:54:45;;;;;;;11.27;8.80;;;;;;;;;;4926808;29;20188;-84
2023/10/18 18:57:54;;;;;;;13.67;9.50;;;;;;;;;;4915476;29;20227;-84
2023/10/18 19:00:59;;;;;;;12.30;9.30;;;;;;;;;;4927290;29;20184;-84
2023/10/18 19:04:02;;;;;;;11.93;9.27;;;;;;;;;;4939712;29;20534;-84
2023/10/18 19:07:09;;;;;;;10.90;9.00;;;;;;;;;;4937589;29;20192;-84
2023/10/18 19:10:15;;;;;;;13.67;9.00;;;;;;;;;;4927139;29;20184;-83
2023/10/18 19:13:19;;;;;;;12.87;8.47;;;;;;;;;;4940317;29;20193;-83
2023/10/18 19:16:23;;;;;;;11.23;8.47;;;;;;;;;;4929320;29;20200;-83
2023/10/18 19:19:28;;;;;;;13.37;8.90;;;;;;;;;;4940060;29;20578;-83
2023/10/18 19:22:32;;;;;;;13.47;8.47;;;;;;;;;;4928809;29;20216;-82
2023/10/18 19:25:39;;;;;;;11.43;8.47;;;;;;;;;;4940089;29;20192;-83
2023/10/18 19:28:44;;;;;;;13.40;9.13;;;;;;;;;;4939725;29;20224;-83
2023/10/18 19:31:48;;;;;;;10.97;9.00;;;;;;;;;;4940974;29;20231;-83
2023/10/18 19:34:53;;;;;;;12.17;9.03;;;;;;;;;;4940549;29;20188;-83
2023/10/18 19:37:57;;;;;;;12.53;9.10;;;;;;;;;;4927896;29;20224;-83
2023/10/18 19:41:03;;;;;;;13.47;9.93;;;;;;;;;;4940790;29;20191;-83
2023/10/18 19:44:11;;;;;;;15.20;9.67;;;;;;;;;;4940564;29;20527;-83
2023/10/18 19:47:15;;;;;;;12.37;9.20;;;;;;;;;;4941030;29;20188;-83
2023/10/18 19:50:20;;;;;;;13.60;8.83;;;;;;;;;;4918455;29;20188;-83
2023/10/18 19:53:24;;;;;;;11.07;7.93;;;;;;;;;;4940173;29;20188;-83
2023/10/18 19:56:28;;;;;;;12.37;8.50;;;;;;;;;;4940643;29;20192;-82
2023/10/18 19:59:32;;;;;;;12.70;8.73;;;;;;;;;;4939827;29;20224;-82
2023/10/18 20:02:37;;;;;;;12.60;9.27;;;;;;;;;;4917976;29;20212;-83
2023/10/18 20:05:41;;;;;;;10.77;8.67;;;;;;;;;;4940782;29;20196;-83
2023/10/18 20:08:46;;;;;;;11.77;9.07;;;;;;;;;;4928863;29;20223;-83
2023/10/18 20:11:55;;;;;;;12.47;9.50;;;;;;;;;;4940002;29;20184;-83
2023/10/18 20:15:05;;;;;;;13.33;10.30;;;;;;;;;;4934628;29;20235;-83
2023/10/18 20:18:10;;;;;;;18.60;11.70;;;;;;;;;;4918917;29;20220;-83
2023/10/18 20:21:16;;;;;;;17.03;10.73;;;;;;;;;;4929575;29;20192;-83